Time;durP1;ratioP1;P1;durP2;ratioP2;P2;SDS_P1;SDS_P2;PMS_P1;PMS_P2;Temp;Humidity;BMP_temperature;BMP_pressure;BME280_temperature;BME280_humidity;BME280_pressure;Samples;Min_cycle;Max_cycle;Signal;HPM_P1;HPM_P2
2021/12/22 00:01:54;;;;;;;38.85;17.38;;;;;;;-142.18;100.00;34244.94;5052138;28;20531;-73
2021/12/22 00:04:25;;;;;;;38.53;17.23;;;;;;;-142.18;100.00;33963.34;5051230;28;20057;-74
2021/12/22 00:06:53;;;;;;;41.30;18.65;;;;;;;-142.18;100.00;34007.59;5050782;28;20057;-73
2021/12/22 00:09:21;;;;;;;44.35;17.25;;;;;;;-142.18;100.00;33967.38;5050478;27;20057;-73
2021/12/22 00:11:49;;;;;;;36.70;17.23;;;;;;;-142.18;100.00;34359.59;5050492;28;20095;-73
2021/12/22 00:14:17;;;;;;;40.55;17.35;;;;;;;-142.18;100.00;34242.94;5050289;28;20132;-73
2021/12/22 00:16:44;;;;;;;35.40;16.38;;;;;;;-142.18;100.00;33810.50;5049997;28;20446;-73
2021/12/22 00:19:12;;;;;;;42.85;18.35;;;;;;;-142.18;100.00;34098.13;5050429;28;20459;-74
2021/12/22 00:21:39;;;;;;;43.42;16.83;;;;;;;-142.18;100.00;34108.16;5051149;28;20065;-73
2021/12/22 00:24:07;;;;;;;43.67;18.00;;;;;;;-142.18;100.00;34059.91;5118716;27;20068;-73
2021/12/22 00:26:35;;;;;;;36.90;17.10;;;;;;;-142.18;100.00;34031.75;5049398;28;20084;-73
2021/12/22 00:29:04;;;;;;;44.85;17.75;;;;;;;-142.18;100.00;33975.44;5049841;28;20057;-73
2021/12/22 00:31:40;;;;;;;38.33;16.13;;;;;;;-142.18;100.00;33975.44;5118616;27;20087;-74
2021/12/22 00:34:16;;;;;;;38.58;17.45;;;;;;;-142.18;100.00;33667.72;5049885;27;20763;-73
2021/12/22 00:36:44;;;;;;;38.88;16.42;;;;;;;-142.18;100.00;33400.25;5118952;27;20064;-73
2021/12/22 00:39:11;;;;;;;43.13;17.33;;;;;;;-142.18;100.00;33677.78;5049552;27;20057;-74
2021/12/22 00:41:39;;;;;;;37.65;16.38;;;;;;;-142.18;100.00;33524.94;5118291;27;20053;-74
2021/12/22 00:44:07;;;;;;;37.50;15.93;;;;;;;-142.18;100.00;33846.72;5049551;28;20053;-74
2021/12/22 00:46:34;;;;;;;38.35;16.40;;;;;;;-142.18;100.00;33927.16;5049155;27;20059;-73
2021/12/22 00:49:02;;;;;;;33.47;16.08;;;;;;;-142.18;100.00;33762.25;5118023;27;20068;-74
2021/12/22 00:51:29;;;;;;;38.75;16.98;;;;;;;-142.18;100.00;33941.25;5118245;27;20057;-73
2021/12/22 00:53:55;;;;;;;37.80;16.08;;;;;;;-142.18;100.00;33967.38;5049909;28;20069;-74
2021/12/22 00:56:22;;;;;;;36.40;15.70;;;;;;;-142.18;100.00;33838.66;5049613;28;20500;-73
2021/12/22 00:58:49;;;;;;;37.95;17.48;;;;;;;-142.18;100.00;33720.00;5117237;27;20352;-73
2021/12/22 01:01:17;;;;;;;33.67;15.70;;;;;;;-142.18;100.00;33625.50;5117937;27;20731;-73
2021/12/22 01:03:43;;;;;;;33.85;16.10;;;;;;;-142.18;100.00;33400.25;5049212;28;20061;-73
2021/12/22 01:06:14;;;;;;;35.70;15.85;;;;;;;-142.18;100.00;33404.28;5049449;28;20149;-73
2021/12/22 01:08:40;;;;;;;42.50;17.77;;;;;;;-142.18;100.00;33102.66;5050057;28;21106;-73
2021/12/22 01:11:08;;;;;;;38.58;16.65;;;;;;;-142.18;100.00;33345.97;5050203;28;20109;-74
2021/12/22 01:13:36;;;;;;;38.75;16.77;;;;;;;-142.18;100.00;33162.97;5049852;28;20068;-74
2021/12/22 01:16:05;;;;;;;37.90;16.88;;;;;;;-142.18;100.00;33265.53;5050617;28;20377;-74
2021/12/22 01:18:34;;;;;;;39.80;16.35;;;;;;;-142.18;100.00;33426.41;5050845;28;20069;-73
2021/12/22 01:23:50;;;;;;;37.50;15.93;;;;;;;-142.18;100.00;33874.88;5053505;28;20072;-73
2021/12/22 01:26:19;;;;;;;43.28;18.88;;;;;;;-142.18;100.00;33416.34;5123104;27;20057;-73
2021/12/22 01:28:45;;;;;;;37.50;15.85;;;;;;;-142.18;100.00;33870.84;5122343;27;20067;-74
2021/12/22 01:31:16;;;;;;;39.25;17.90;;;;;;;-142.18;100.00;33541.03;5053894;28;20076;-74
2021/12/22 01:33:43;;;;;;;38.30;16.88;;;;;;;-142.18;100.00;34021.69;5053642;27;20100;-74
2021/12/22 01:36:11;;;;;;;35.42;15.93;;;;;;;-142.18;100.00;33673.75;5053653;28;20078;-73
2021/12/22 01:38:37;;;;;;;36.03;16.77;;;;;;;-142.18;100.00;33798.44;5053819;27;20088;-74
2021/12/22 01:41:06;;;;;;;32.75;14.90;;;;;;;-142.18;100.00;33595.31;5053622;28;20057;-74
2021/12/22 01:43:32;;;;;;;39.47;16.25;;;;;;;-142.18;100.00;33317.81;5053487;28;20433;-74
2021/12/22 01:52:03;;;;;;;35.55;15.50;;;;;;;-142.18;100.00;32965.91;5109611;27;20167;-73
2021/12/22 01:55:06;;;;;;;34.92;15.10;;;;;;;-142.18;100.00;33004.13;5052512;28;20061;-74
2021/12/22 01:57:44;;;;;;;36.00;16.35;;;;;;;-142.18;100.00;33352.00;5053270;28;20061;-73
2021/12/22 02:00:17;;;;;;;38.90;16.10;;;;;;;-142.18;100.00;33438.47;5122292;27;20828;-73
2021/12/22 02:02:44;;;;;;;36.03;16.23;;;;;;;-142.18;100.00;33307.75;5052490;28;20061;-73
2021/12/22 02:05:12;;;;;;;37.17;16.25;;;;;;;-142.18;100.00;33072.47;5052332;27;20497;-73
2021/12/22 02:07:39;;;;;;;38.70;15.80;;;;;;;-142.18;100.00;33569.19;5120934;27;20068;-73
2021/12/22 02:10:31;;;;;;;36.13;15.32;;;;;;;-142.18;100.00;33661.69;5121198;27;20054;-73
2021/12/22 02:12:59;;;;;;;36.90;17.00;;;;;;;-142.18;100.00;33376.13;5052776;27;20445;-73
2021/12/22 02:15:32;;;;;;;59.95;18.55;;;;;;;-142.18;100.00;33454.56;5121667;27;20062;-73
2021/12/22 02:18:03;;;;;;;32.28;14.50;;;;;;;-142.18;100.00;33655.66;5052060;27;20053;-73
2021/12/22 02:20:31;;;;;;;38.40;16.50;;;;;;;-142.18;100.00;33396.22;5052399;28;20053;-73
2021/12/22 02:22:58;;;;;;;32.83;14.98;;;;;;;-142.18;100.00;33543.03;5121581;27;20876;-73
2021/12/22 02:25:37;;;;;;;39.78;16.40;;;;;;;-142.18;100.00;33537.00;5121826;27;20068;-73
2021/12/22 02:28:08;;;;;;;35.17;16.05;;;;;;;-142.18;100.00;33621.47;5053016;28;20076;-73
2021/12/22 02:30:37;;;;;;;41.55;16.67;;;;;;;-142.18;100.00;33183.06;5123326;27;20064;-73
2021/12/22 02:33:20;;;;;;;35.35;15.82;;;;;;;-142.18;100.00;33106.66;5121050;27;20489;-73
2021/12/22 02:38:38;;;;;;;36.45;16.27;;;;;;;-142.18;100.00;32742.72;5052505;28;20144;-73
2021/12/22 02:41:10;;;;;;;32.33;15.30;;;;;;;-142.18;100.00;33052.38;5121920;27;20059;-73
2021/12/22 02:43:45;;;;;;;38.30;17.00;;;;;;;-142.18;100.00;33484.72;5121743;27;20049;-73
2021/12/22 02:46:17;;;;;;;39.75;16.60;;;;;;;-142.18;100.00;33408.28;5122352;27;20132;-73
2021/12/22 02:48:45;;;;;;;31.48;14.55;;;;;;;-142.18;100.00;33583.25;5053629;28;20122;-73
2021/12/22 02:51:15;;;;;;;39.10;17.42;;;;;;;-142.18;100.00;33327.84;5053451;27;20083;-73
2021/12/22 02:53:49;;;;;;;40.70;16.63;;;;;;;-142.18;100.00;33263.50;5052418;28;20068;-73
2021/12/22 03:01:39;;;;;;;42.08;17.45;;;;;;;-142.18;100.00;33488.75;5052460;28;20558;-73
2021/12/22 03:04:12;;;;;;;35.08;15.88;;;;;;;-142.18;100.00;33430.41;5051977;28;20152;-72
2021/12/22 03:06:47;;;;;;;33.28;15.02;;;;;;;-142.18;100.00;33858.78;5120738;27;20060;-73
2021/12/22 03:09:34;;;;;;;39.35;15.90;;;;;;;-142.18;100.00;33699.91;5121288;27;20072;-73
2021/12/22 03:12:06;;;;;;;35.72;16.20;;;;;;;-142.18;100.00;33251.44;5122108;27;20178;-73
2021/12/22 03:14:33;;;;;;;33.38;15.70;;;;;;;-142.18;100.00;33235.34;5053730;28;20148;-72
2021/12/22 03:17:01;;;;;;;38.45;15.82;;;;;;;-142.18;100.00;33436.44;5122078;27;20168;-73
2021/12/22 03:19:32;;;;;;;43.08;17.42;;;;;;;-142.18;100.00;32597.97;5053565;27;20061;-73
2021/12/22 03:22:05;;;;;;;37.35;15.82;;;;;;;-142.18;100.00;32984.00;5122556;27;20057;-73
2021/12/22 03:24:36;;;;;;;35.72;15.55;;;;;;;-142.18;100.00;32708.53;5053590;28;20463;-73
2021/12/22 03:27:07;;;;;;;36.72;16.02;;;;;;;-142.18;100.00;33076.50;5053512;28;20083;-73
2021/12/22 03:29:36;;;;;;;37.88;15.88;;;;;;;-142.18;100.00;33440.47;5121183;27;20062;-73
2021/12/22 03:32:09;;;;;;;37.42;16.05;;;;;;;-142.18;100.00;32907.59;5053032;28;20062;-73
2021/12/22 03:34:39;;;;;;;35.60;16.77;;;;;;;-142.18;100.00;33416.34;5053615;28;20049;-73
2021/12/22 03:37:09;;;;;;;34.25;15.85;;;;;;;-142.18;100.00;33311.78;5053889;28;20156;-73
2021/12/22 03:39:38;;;;;;;33.08;15.15;;;;;;;-142.18;100.00;33559.13;5052393;28;20061;-73
2021/12/22 03:42:08;;;;;;;34.15;15.63;;;;;;;-142.18;100.00;33508.84;5052736;28;20748;-73
2021/12/22 03:44:36;;;;;;;33.25;15.20;;;;;;;-142.18;100.00;33122.75;5050994;28;20058;-73
2021/12/22 03:47:05;;;;;;;34.20;14.60;;;;;;;-142.18;100.00;32907.59;5052833;28;20069;-74
2021/12/22 03:49:32;;;;;;;36.00;16.85;;;;;;;-142.18;100.00;33392.22;5052253;28;20060;-73
2021/12/22 03:52:01;;;;;;;29.70;13.63;;;;;;;-142.18;100.00;34076.00;5052847;28;20049;-73
2021/12/22 03:54:29;;;;;;;40.25;18.02;;;;;;;-142.18;100.00;33331.88;5052616;28;20054;-73
2021/12/22 03:56:57;;;;;;;33.10;15.38;;;;;;;-142.18;100.00;33102.66;5052407;27;20214;-73
2021/12/22 03:59:25;;;;;;;31.40;13.55;;;;;;;-142.18;100.00;33323.84;5051127;27;20152;-73
2021/12/22 04:01:53;;;;;;;28.30;14.02;;;;;;;-142.18;100.00;33400.25;5119464;27;20057;-73
2021/12/22 04:04:22;;;;;;;29.05;14.10;;;;;;;-142.18;100.00;33639.56;5051471;28;20060;-73
2021/12/22 04:06:50;;;;;;;32.05;15.27;;;;;;;-142.18;100.00;33259.50;5120045;27;20178;-73
2021/12/22 04:09:26;;;;;;;28.60;14.45;;;;;;;-142.18;100.00;33452.53;5051858;28;20466;-73
2021/12/22 04:11:53;;;;;;;32.13;15.40;;;;;;;-142.18;100.00;33271.56;5052178;27;20733;-74
2021/12/22 04:14:22;;;;;;;34.55;16.45;;;;;;;-142.18;100.00;33991.53;5120179;27;20073;-73
2021/12/22 04:16:48;;;;;;;33.28;15.48;;;;;;;-142.18;100.00;34345.50;5051454;28;20061;-73
2021/12/22 04:19:16;;;;;;;28.48;14.35;;;;;;;-142.18;100.00;34061.91;5050946;28;20481;-73
2021/12/22 04:21:43;;;;;;;32.97;15.13;;;;;;;-142.18;100.00;34228.84;5119589;27;20061;-73
2021/12/22 04:24:10;;;;;;;30.33;14.80;;;;;;;-142.18;100.00;34432.00;5050936;28;20072;-73
2021/12/22 04:26:38;;;;;;;29.85;14.45;;;;;;;-142.18;100.00;34184.59;5051105;28;20243;-73
2021/12/22 04:29:07;;;;;;;28.88;13.38;;;;;;;-142.18;100.00;33816.53;5120084;27;20061;-73
2021/12/22 04:31:34;;;;;;;32.55;13.85;;;;;;;-142.18;100.00;33569.19;5051665;28;20182;-73
2021/12/22 04:34:07;;;;;;;33.50;14.00;;;;;;;-142.18;100.00;33599.34;5050782;28;20057;-73
2021/12/22 04:36:38;;;;;;;32.55;13.73;;;;;;;-142.18;100.00;33142.84;5051284;28;20140;-73
2021/12/22 04:39:09;;;;;;;26.45;13.60;;;;;;;-142.18;100.00;33520.91;5051298;28;20068;-73
2021/12/22 04:41:35;;;;;;;23.33;12.43;;;;;;;-142.18;100.00;34176.56;5119444;27;20553;-73
2021/12/22 04:44:04;;;;;;;30.20;13.32;;;;;;;-142.18;100.00;34381.72;5120677;27;20068;-73
2021/12/22 04:46:31;;;;;;;27.05;13.18;;;;;;;-142.18;100.00;33673.75;5050591;28;20054;-73
2021/12/22 04:48:59;;;;;;;28.45;13.55;;;;;;;-142.18;100.00;33669.72;5051098;28;20057;-73
2021/12/22 04:51:29;;;;;;;30.80;14.43;;;;;;;-142.18;100.00;33255.47;5120285;27;20104;-73
2021/12/22 04:56:44;;;;;;;27.77;14.07;;;;;;;-142.18;100.00;33150.91;5049652;28;20541;-73
2021/12/22 04:59:12;;;;;;;29.35;14.35;;;;;;;-142.18;100.00;33319.81;5049343;27;20116;-73
2021/12/22 05:01:39;;;;;;;28.80;14.65;;;;;;;-142.18;100.00;33428.41;5049289;28;20070;-73
2021/12/22 05:04:07;;;;;;;32.42;15.40;;;;;;;-142.18;100.00;33593.31;5050105;28;20099;-73
2021/12/22 05:06:35;;;;;;;29.25;14.80;;;;;;;-142.18;100.00;33709.94;5119037;27;20061;-73
2021/12/22 05:09:06;;;;;;;29.10;12.93;;;;;;;-142.18;100.00;33619.44;5119056;27;20366;-73
2021/12/22 05:11:34;;;;;;;26.33;12.82;;;;;;;-142.18;100.00;34333.44;5118571;27;20062;-73
2021/12/22 05:14:03;;;;;;;31.73;13.65;;;;;;;-142.18;100.00;34082.03;5050372;28;20057;-73
2021/12/22 05:16:31;;;;;;;27.75;14.13;;;;;;;-142.18;100.00;33951.28;5049782;28;20470;-73
2021/12/22 05:19:11;;;;;;;32.17;13.48;;;;;;;-142.18;100.00;33500.81;5119302;27;20228;-73
2021/12/22 05:21:39;;;;;;;29.35;12.85;;;;;;;-142.18;100.00;33693.88;5050252;27;20061;-72
2021/12/22 05:24:11;;;;;;;33.80;13.88;;;;;;;-142.18;100.00;33718.00;5050461;28;20068;-73
2021/12/22 05:26:38;;;;;;;29.63;12.68;;;;;;;-142.18;100.00;33750.19;5050634;27;20462;-73
2021/12/22 05:29:07;;;;;;;30.45;12.90;;;;;;;-142.18;100.00;33635.53;5050018;28;20068;-73
2021/12/22 05:31:33;;;;;;;32.65;14.18;;;;;;;-142.18;100.00;33215.25;5049268;28;20065;-66
2021/12/22 05:34:01;;;;;;;30.15;13.77;;;;;;;-142.18;100.00;33251.44;5050409;28;20064;-67
2021/12/22 05:36:29;;;;;;;31.70;13.88;;;;;;;-142.18;100.00;33520.91;5050076;27;20057;-66
2021/12/22 05:38:57;;;;;;;32.15;13.52;;;;;;;-142.18;100.00;33237.38;5049141;28;20387;-66
2021/12/22 05:41:24;;;;;;;30.05;13.82;;;;;;;-142.18;100.00;33472.66;5049364;28;20068;-66
2021/12/22 05:43:52;;;;;;;29.63;13.25;;;;;;;-142.18;100.00;34092.09;5049621;27;20064;-65
2021/12/22 05:46:20;;;;;;;26.33;13.60;;;;;;;-142.18;100.00;33917.09;5049175;27;20446;-66
2021/12/22 05:48:50;;;;;;;30.25;13.50;;;;;;;-142.18;100.00;33836.66;5048833;28;20061;-65
2021/12/22 05:51:16;;;;;;;26.38;12.88;;;;;;;-142.18;100.00;33295.69;5048502;27;20057;-65
2021/12/22 05:53:44;;;;;;;29.85;13.45;;;;;;;-142.18;100.00;33635.53;5048705;27;20067;-65
2021/12/22 05:56:14;;;;;;;25.27;12.30;;;;;;;-142.18;100.00;34478.28;5048079;28;20493;-72
2021/12/22 05:58:42;;;;;;;30.05;14.50;;;;;;;-142.18;100.00;33846.72;5078098;27;20725;-72
2021/12/22 06:01:10;;;;;;;30.73;13.45;;;;;;;-142.18;100.00;33524.94;5133032;27;20066;-72
2021/12/22 06:03:37;;;;;;;32.92;13.38;;;;;;;-142.18;100.00;33651.63;5132366;27;20067;-72
2021/12/22 06:06:06;;;;;;;30.98;13.60;;;;;;;-142.18;100.00;33532.97;5132215;27;20066;-72
2021/12/22 06:08:34;;;;;;;32.35;14.15;;;;;;;-142.18;100.00;33064.44;5135163;27;20055;-72
2021/12/22 06:11:00;;;;;;;31.60;13.00;;;;;;;-142.18;100.00;33082.53;5135655;27;20069;-73
2021/12/22 06:13:28;;;;;;;28.80;13.90;;;;;;;-142.18;100.00;34277.13;5134524;27;20087;-73
2021/12/22 06:15:58;;;;;;;32.75;13.98;;;;;;;-142.18;100.00;33746.16;5135627;27;20480;-73
2021/12/22 06:18:28;;;;;;;31.08;13.23;;;;;;;-142.18;100.00;33623.47;5135480;27;20070;-73
2021/12/22 06:20:55;;;;;;;29.30;14.18;;;;;;;-142.18;100.00;33705.94;5136112;27;20150;-73
2021/12/22 06:23:23;;;;;;;31.50;13.65;;;;;;;-142.18;100.00;33782.34;5136192;27;20291;-75
2021/12/22 06:25:50;;;;;;;29.27;14.27;;;;;;;-142.18;100.00;34749.84;5135285;27;20164;-73
2021/12/22 06:28:17;;;;;;;30.73;13.05;;;;;;;-142.18;100.00;34699.53;5136898;27;20060;-73
2021/12/22 06:30:43;;;;;;;26.45;12.77;;;;;;;-142.18;100.00;34381.72;5136156;27;20059;-73
2021/12/22 06:33:10;;;;;;;34.20;14.32;;;;;;;-142.18;100.00;33822.56;5136368;27;20451;-74
2021/12/22 06:35:44;;;;;;;40.15;15.65;;;;;;;-142.18;100.00;33770.28;5134712;27;20126;-74
2021/12/22 06:38:50;;;;;;;34.10;14.80;;;;;;;-142.18;100.00;33766.25;5150677;27;20415;-74
2021/12/22 06:41:35;;;;;;;32.50;13.75;;;;;;;-142.18;100.00;34088.06;5143044;27;20063;-74
2021/12/22 06:44:05;;;;;;;34.13;15.18;;;;;;;-142.18;100.00;34023.69;5156768;27;20104;-74
2021/12/22 06:46:33;;;;;;;40.10;17.92;;;;;;;-142.18;100.00;33299.72;5155206;27;20469;-73
2021/12/22 06:49:00;;;;;;;42.60;16.38;;;;;;;-142.18;100.00;33418.34;5153087;27;20083;-74
2021/12/22 06:51:29;;;;;;;35.97;15.55;;;;;;;-142.18;100.00;33446.50;5133161;27;20060;-74
2021/12/22 06:54:00;;;;;;;35.03;13.70;;;;;;;-142.18;100.00;33593.31;5149342;27;20050;-74
2021/12/22 06:56:33;;;;;;;34.63;13.75;;;;;;;-142.18;100.00;33689.84;5173502;27;20101;-74
2021/12/22 06:59:03;;;;;;;38.78;15.40;;;;;;;-142.18;100.00;33424.38;5160674;27;20063;-74
2021/12/22 07:01:33;;;;;;;40.25;17.45;;;;;;;-142.18;100.00;33617.44;5154290;27;20067;-73
2021/12/22 07:04:05;;;;;;;36.20;15.07;;;;;;;-142.18;100.00;33923.13;5155414;27;20058;-74
2021/12/22 07:06:34;;;;;;;;;;;;;;;-142.18;100.00;33541.03;5156277;27;20138;-74
2021/12/22 07:09:07;;;;;;;33.22;14.55;;;;;;;-142.18;100.00;33842.69;5155899;27;19957;-74
2021/12/22 07:11:36;;;;;;;36.53;14.82;;;;;;;-142.18;100.00;34132.31;5156124;27;20144;-74
2021/12/22 07:14:07;;;;;;;36.83;15.43;;;;;;;-142.18;100.00;34417.94;5150173;27;20157;-73
2021/12/22 07:16:38;;;;;;;33.25;14.30;;;;;;;-142.18;100.00;34506.44;5154345;27;20464;-74
2021/12/22 07:19:06;;;;;;;35.58;14.55;;;;;;;-142.18;100.00;34836.34;5154021;27;20070;-74
2021/12/22 07:21:36;;;;;;;31.65;13.50;;;;;;;-142.18;100.00;35126.03;5151916;27;20051;-74
2021/12/22 07:24:06;;;;;;;33.92;13.65;;;;;;;-142.18;100.00;35051.59;5155466;27;20046;-74
2021/12/22 07:26:33;;;;;;;33.97;13.77;;;;;;;-142.18;100.00;34765.94;5156053;27;20066;-74
2021/12/22 07:29:01;;;;;;;32.67;13.55;;;;;;;-142.18;100.00;34305.28;5155175;27;20055;-73
2021/12/22 07:31:29;;;;;;;37.95;14.63;;;;;;;-142.18;100.00;34500.41;5154993;27;20417;-74
2021/12/22 07:34:20;;;;;;;34.80;14.35;;;;;;;-142.18;100.00;33927.16;5155349;27;20078;-73
2021/12/22 07:37:03;;;;;;;32.65;13.93;;;;;;;-142.18;100.00;33846.72;5155174;27;20063;-74
2021/12/22 07:39:30;;;;;;;31.23;12.65;;;;;;;-142.18;100.00;34100.13;5154449;27;20058;-74
2021/12/22 07:41:59;;;;;;;39.28;14.95;;;;;;;-142.18;100.00;34063.94;5155761;27;20059;-73
2021/12/22 07:44:27;;;;;;;41.00;17.33;;;;;;;-142.18;100.00;34234.88;5156352;27;20055;-72
2021/12/22 07:46:58;;;;;;;37.63;16.55;;;;;;;-142.18;100.00;34506.44;5177378;27;20398;-72
2021/12/22 07:49:24;;;;;;;33.15;15.55;;;;;;;-142.18;100.00;34534.59;5178216;27;20439;-72
2021/12/22 07:51:52;;;;;;;32.45;14.18;;;;;;;-142.18;100.00;34747.81;5177955;27;20051;-72
2021/12/22 07:54:20;;;;;;;33.53;15.57;;;;;;;-142.18;100.00;34685.47;5177939;27;20066;-73
2021/12/22 07:56:49;;;;;;;33.92;15.48;;;;;;;-142.18;100.00;34743.81;5175753;27;20054;-72
2021/12/22 07:59:15;;;;;;;34.65;15.27;;;;;;;-142.18;100.00;34822.25;5116882;27;20148;-73
2021/12/22 08:01:43;;;;;;;39.95;16.08;;;;;;;-142.18;100.00;34967.09;5140822;27;20143;-73
2021/12/22 08:04:12;;;;;;;32.75;15.07;;;;;;;-142.18;100.00;34932.91;5070439;28;20140;-72
2021/12/22 08:06:39;;;;;;;38.28;15.48;;;;;;;-142.18;100.00;34880.59;5071097;28;20110;-72
2021/12/22 08:09:06;;;;;;;37.63;14.82;;;;;;;-142.18;100.00;34780.00;5139917;27;20061;-72
2021/12/22 08:11:34;;;;;;;29.60;14.07;;;;;;;-142.18;100.00;34995.25;5069923;28;20148;-72
2021/12/22 08:14:03;;;;;;;35.10;15.10;;;;;;;-142.18;100.00;34542.63;5075889;27;20067;-72
2021/12/22 08:16:31;;;;;;;32.47;14.02;;;;;;;-142.18;100.00;34540.63;5060325;27;20136;-72
2021/12/22 08:19:01;;;;;;;35.25;14.02;;;;;;;-142.18;100.00;33890.97;5054061;28;20050;-73
2021/12/22 08:21:30;;;;;;;36.30;14.98;;;;;;;-142.18;100.00;33834.66;5067353;28;20407;-73
2021/12/22 08:24:04;;;;;;;34.90;14.20;;;;;;;-142.18;100.00;34446.09;5071666;28;20065;-73
2021/12/22 08:26:34;;;;;;;39.38;15.02;;;;;;;-142.18;100.00;34361.59;5141502;27;20057;-73
2021/12/22 08:29:02;;;;;;;36.80;14.85;;;;;;;-142.18;100.00;34532.59;5071407;28;20049;-73
2021/12/22 08:31:30;;;;;;;66.68;31.08;;;;;;;-142.18;100.00;34607.00;5066001;27;20044;-73
2021/12/22 08:33:58;;;;;;;42.55;16.42;;;;;;;-142.18;100.00;34876.56;5070628;27;20090;-73
2021/12/22 08:39:15;;;;;;;35.45;15.23;;;;;;;-142.18;100.00;34820.25;5057687;27;20114;-71
2021/12/22 08:41:53;;;;;;;33.13;13.90;;;;;;;-142.18;100.00;35282.97;5054907;28;20136;-71
2021/12/22 08:44:43;;;;;;;36.47;16.33;;;;;;;-142.18;100.00;35103.91;5056743;27;20061;-72
2021/12/22 08:47:21;;;;;;;43.15;16.55;;;;;;;-142.18;100.00;34924.84;5148170;27;20096;-74
2021/12/22 08:49:56;;;;;;;34.92;15.38;;;;;;;-142.18;100.00;34852.44;5134332;27;20052;-74
2021/12/22 08:52:22;;;;;;;36.58;15.82;;;;;;;-142.18;100.00;34844.38;5061515;28;21240;-74
2021/12/22 08:54:56;;;;;;;34.17;14.88;;;;;;;-142.18;100.00;35383.56;5068220;27;20468;-74
2021/12/22 08:57:24;;;;;;;29.60;13.50;;;;;;;-142.18;100.00;35447.94;5069303;27;20065;-73
2021/12/22 08:59:53;;;;;;;31.45;14.35;;;;;;;-142.18;100.00;36055.59;5142232;27;20106;-73
2021/12/22 09:02:25;;;;;;;33.38;13.68;;;;;;;-142.18;100.00;35411.72;5149002;27;20051;-73
2021/12/22 09:05:00;;;;;;;28.83;13.90;;;;;;;-142.18;100.00;35077.75;5154875;27;20514;-73
2021/12/22 09:07:26;;;;;;;26.83;12.73;;;;;;;-142.18;100.00;35608.91;5152299;27;20456;-73
2021/12/22 09:09:56;;;;;;;34.53;15.07;;;;;;;-142.18;100.00;35343.31;5135389;27;20084;-73
2021/12/22 09:12:26;;;;;;;34.55;14.73;;;;;;;-142.18;100.00;35234.66;5135180;27;20151;-73
2021/12/22 09:14:54;;;;;;;32.28;14.45;;;;;;;-142.18;100.00;35303.06;5150180;27;20055;-73
2021/12/22 09:17:23;;;;;;;47.20;18.88;;;;;;;-142.18;100.00;35331.25;5135183;27;20059;-73
2021/12/22 09:19:52;;;;;;;39.42;16.02;;;;;;;-142.18;100.00;35470.06;5135851;27;20376;-73
2021/12/22 09:22:21;;;;;;;63.30;22.42;;;;;;;-142.18;100.00;36136.09;5132425;27;20056;-74
2021/12/22 09:24:50;;;;;;;32.63;14.52;;;;;;;-142.18;100.00;36126.03;5132048;27;20048;-73
2021/12/22 09:27:18;;;;;;;51.45;19.05;;;;;;;-142.18;100.00;35737.69;5140686;27;20047;-74
2021/12/22 09:29:46;;;;;;;39.60;15.77;;;;;;;-142.18;100.00;36170.31;5132956;27;20056;-74
2021/12/22 09:32:16;;;;;;;32.60;15.50;;;;;;;-142.18;100.00;36041.53;5143439;27;20051;-74
2021/12/22 09:34:45;;;;;;;39.38;16.05;;;;;;;-142.18;100.00;35870.47;5153165;27;20116;-73
2021/12/22 09:37:13;;;;;;;38.22;16.80;;;;;;;-142.18;100.00;36333.31;5153690;27;20059;-74
2021/12/22 09:39:44;;;;;;;30.58;14.57;;;;;;;-142.18;100.00;35979.16;5152805;27;20059;-73
2021/12/22 09:42:12;;;;;;;33.15;13.15;;;;;;;-142.18;100.00;36027.44;5153195;27;20059;-74
2021/12/22 09:44:46;;;;;;;29.52;14.25;;;;;;;-142.18;100.00;35898.66;5149748;27;20124;-74
2021/12/22 09:47:26;;;;;;;29.88;14.25;;;;;;;-142.18;100.00;36174.34;5155400;27;20138;-74
2021/12/22 09:52:38;;;;;;;30.95;15.30;;;;;;;-142.18;100.00;36427.91;5156117;27;20711;-74
2021/12/22 09:55:15;;;;;;;47.75;21.15;;;;;;;-142.18;100.00;36798.22;5155192;27;20150;-74
2021/12/22 09:57:48;;;;;;;32.65;15.00;;;;;;;-142.18;100.00;36784.13;5153048;27;20117;-73
2021/12/22 10:00:15;;;;;;;29.02;14.43;;;;;;;-142.18;100.00;36796.22;5065100;27;20049;-73
2021/12/22 10:02:44;;;;;;;31.13;14.25;;;;;;;-142.18;100.00;36969.31;5130827;27;20045;-73
2021/12/22 10:05:12;;;;;;;34.10;15.60;;;;;;;-142.18;100.00;36675.44;5054739;28;20053;-74
2021/12/22 10:07:41;;;;;;;32.28;15.32;;;;;;;-142.18;100.00;37444.34;5051111;28;20058;-73
2021/12/22 10:10:13;;;;;;;29.00;14.65;;;;;;;-142.18;100.00;37653.72;5051323;27;20057;-73
2021/12/22 10:12:43;;;;;;;27.73;12.70;;;;;;;-142.18;100.00;37561.09;5083673;27;20055;-74
2021/12/22 10:15:12;;;;;;;27.65;14.05;;;;;;;-142.18;100.00;37279.28;5071905;27;20550;-75
2021/12/22 10:17:44;;;;;;;31.92;15.90;;;;;;;-142.18;100.00;37200.78;5139387;27;20439;-74
2021/12/22 10:20:15;;;;;;;32.35;15.50;;;;;;;-142.18;100.00;37061.91;5133727;27;20171;-74
2021/12/22 10:22:50;;;;;;;28.52;13.55;;;;;;;-142.18;100.00;37424.22;5069406;28;20090;-73
2021/12/22 10:25:23;;;;;;;27.10;13.52;;;;;;;-142.18;100.00;37263.19;5052164;28;20050;-73
2021/12/22 10:28:16;;;;;;;25.67;13.65;;;;;;;-142.18;100.00;37154.50;5060907;28;20061;-74
2021/12/22 10:30:46;;;;;;;;;;;;;;;-142.18;100.00;37440.31;5139782;27;20367;-74
2021/12/22 10:33:20;;;;;;;30.30;14.93;;;;;;;-142.18;100.00;37440.31;5134249;27;20295;-74
2021/12/22 10:36:00;;;;;;;26.77;14.00;;;;;;;-142.18;100.00;37383.97;5127116;27;20059;-74
2021/12/22 10:38:30;;;;;;;26.23;14.80;;;;;;;-142.18;100.00;37716.13;5071033;28;20096;-74
2021/12/22 10:41:04;;;;;;;34.03;17.13;;;;;;;-142.18;100.00;37828.84;5135966;27;20766;-74
2021/12/22 10:43:38;;;;;;;28.10;15.70;;;;;;;-142.18;100.00;37675.84;5132207;27;20077;-73
2021/12/22 10:46:06;;;;;;;29.55;15.10;;;;;;;-142.18;100.00;38008.03;5125564;27;20061;-73
2021/12/22 10:51:36;;;;;;;30.15;15.18;;;;;;;-142.18;100.00;37770.47;5056322;28;20810;-73
2021/12/22 10:54:12;;;;;;;29.05;15.10;;;;;;;-142.18;100.00;37800.69;5130148;27;20064;-73
2021/12/22 10:56:43;;;;;;;28.65;14.35;;;;;;;-142.18;100.00;38084.53;5077392;28;20056;-73
2021/12/22 10:59:19;;;;;;;31.95;15.23;;;;;;;-142.18;100.00;37810.75;5097733;27;20063;-74
2021/12/22 11:01:48;;;;;;;53.03;21.23;;;;;;;-142.18;100.00;37794.63;5176585;27;20755;-74
2021/12/22 11:04:26;;;;;;;46.67;21.45;;;;;;;-142.18;100.00;37752.34;5142626;27;20461;-73
2021/12/22 11:07:22;;;;;;;41.67;20.63;;;;;;;-142.18;100.00;37303.44;5152636;27;20055;-73
2021/12/22 11:09:52;;;;;;;27.52;15.00;;;;;;;-142.18;100.00;37404.09;5144395;27;20050;-74
2021/12/22 11:12:44;;;;;;;30.02;14.95;;;;;;;-142.18;100.00;37226.94;5153220;27;20051;-74
2021/12/22 11:15:29;;;;;;;32.05;14.48;;;;;;;-142.18;100.00;37569.16;5140621;27;20055;-74
2021/12/22 11:17:59;;;;;;;30.45;14.48;;;;;;;-142.18;100.00;37693.97;5139195;27;20060;-73
2021/12/22 11:20:27;;;;;;;32.08;14.40;;;;;;;-142.18;100.00;37488.63;5160760;27;20415;-75
2021/12/22 11:23:00;;;;;;;31.45;14.70;;;;;;;-142.18;100.00;37718.13;5161487;27;20148;-74
2021/12/22 11:25:29;;;;;;;29.05;14.43;;;;;;;-142.18;100.00;37822.81;5141617;27;20137;-74
2021/12/22 11:27:59;;;;;;;29.58;14.80;;;;;;;-142.18;100.00;37883.22;5155721;27;20835;-75
2021/12/22 11:30:27;;;;;;;29.55;14.05;;;;;;;-142.18;100.00;37903.34;5135629;27;20059;-74
2021/12/22 11:32:55;;;;;;;30.85;14.38;;;;;;;-142.18;100.00;38173.13;5153217;27;20051;-74
2021/12/22 11:35:24;;;;;;;32.75;15.57;;;;;;;-142.18;100.00;37895.28;5155083;27;20139;-74
2021/12/22 11:37:54;;;;;;;30.05;15.35;;;;;;;-142.18;100.00;37661.75;5141056;27;20066;-74